createdAt,value
2023-04-04T00:01:35.832Z,99011.16
2023-04-04T00:06:44.542Z,99007.72
2023-04-04T00:11:48.153Z,99006.88
2023-04-04T00:16:51.789Z,99003.44
2023-04-04T00:21:56.594Z,99011.19
2023-04-04T00:26:59.728Z,99002.53
2023-04-04T00:32:03.861Z,99012.94
2023-04-04T00:37:12.237Z,99017.28
2023-04-04T00:42:15.739Z,99015.56
2023-04-04T00:47:19.347Z,99015.56
2023-04-04T00:52:24.216Z,99015.56
2023-04-04T00:57:28.952Z,99011.22
2023-04-04T01:02:33.557Z,99000.03
2023-04-04T01:07:38.719Z,99006.94
2023-04-04T01:12:43.522Z,99006.97
2023-04-04T01:17:47.111Z,98990.53
2023-04-04T01:22:53.135Z,98992.28
2023-04-04T01:27:58.069Z,98996.59
2023-04-04T01:33:03.669Z,99006.06
2023-04-04T01:38:17.025Z,99006.91
2023-04-04T01:43:22.035Z,99004.38
2023-04-04T01:48:25.951Z,99005.22
2023-04-04T01:53:29.509Z,99011.25
2023-04-04T01:58:34.427Z,99006.94
2023-04-04T02:03:37.557Z,99006.09
2023-04-04T02:08:40.977Z,99005.22
2023-04-04T02:13:45.973Z,99012.13
2023-04-04T02:18:49.942Z,99007.81
2023-04-04T02:23:53.367Z,98986.19
2023-04-04T02:28:58.154Z,98994.00
2023-04-04T02:34:01.460Z,98995.69
2023-04-04T02:39:06.025Z,98991.41
2023-04-04T02:44:11.121Z,98993.09
2023-04-04T02:49:14.597Z,98992.25
2023-04-04T02:54:17.995Z,98993.13
2023-04-04T02:59:22.931Z,98984.50
2023-04-04T03:04:26.397Z,98990.56
2023-04-04T03:09:29.859Z,98989.66
2023-04-04T03:14:34.737Z,98995.72
2023-04-04T03:19:37.895Z,98994.88
2023-04-04T03:24:41.339Z,98989.69
2023-04-04T03:29:46.213Z,98987.94
2023-04-04T03:34:49.401Z,98994.84
2023-04-04T03:39:52.873Z,98990.53
2023-04-04T03:44:57.686Z,98991.41
2023-04-04T03:50:01.314Z,98994.88
2023-04-04T03:55:04.892Z,98985.38
2023-04-04T04:00:11.217Z,99006.06
2023-04-04T04:05:14.846Z,98999.16
2023-04-04T04:10:18.523Z,99008.66
2023-04-04T04:15:23.464Z,99005.22
2023-04-04T04:20:26.658Z,99006.09
2023-04-04T04:25:30.066Z,99006.94
2023-04-04T04:30:34.903Z,99009.50
2023-04-04T04:35:38.976Z,99005.97
2023-04-04T04:40:43.177Z,99012.09
2023-04-04T04:45:48.620Z,99019.84
2023-04-04T04:50:52.302Z,99018.97
2023-04-04T04:55:55.768Z,99015.50
2023-04-04T05:01:01.156Z,99017.22
2023-04-04T05:06:04.829Z,99017.19
2023-04-04T05:11:08.343Z,99006.81
2023-04-04T05:16:13.274Z,99004.94
2023-04-04T05:21:17.168Z,98992.69
2023-04-04T05:26:20.996Z,98990.81
2023-04-04T05:31:25.897Z,98998.44
2023-04-04T05:36:29.785Z,98998.41
2023-04-04T05:41:33.473Z,98983.56
2023-04-04T05:46:38.379Z,98990.25
2023-04-04T05:51:42.039Z,98987.66
2023-04-04T05:56:45.558Z,98987.63
2023-04-04T06:01:50.433Z,98984.84
2023-04-04T06:06:53.641Z,98978.50
2023-04-04T06:11:57.185Z,98974.97
2023-04-04T06:17:02.316Z,98976.41
2023-04-04T06:22:05.828Z,98978.75
2023-04-04T06:27:09.422Z,98982.78
2023-04-04T06:32:14.257Z,98985.34
2023-04-04T06:37:17.386Z,98992.97
2023-04-04T06:42:20.847Z,98995.22
2023-04-04T06:47:25.780Z,98973.50
2023-04-04T06:52:29.482Z,98982.03
2023-04-04T06:57:33.303Z,98992.31
2023-04-04T07:02:38.409Z,98990.34
2023-04-04T07:07:42.177Z,98991.50
2023-04-04T07:12:45.603Z,99001.44
2023-04-04T07:17:50.855Z,99002.25
2023-04-04T07:22:54.537Z,99005.31
2023-04-04T07:28:09.616Z,99017.59
2023-04-04T07:33:17.466Z,99012.59
2023-04-04T07:38:21.293Z,99012.38
2023-04-04T07:43:24.789Z,99008.56
2023-04-04T07:48:29.585Z,99000.69
2023-04-04T07:53:33.314Z,98999.72
2023-04-04T07:58:37.476Z,99012.88
2023-04-04T08:03:42.509Z,99009.88
2023-04-04T08:08:47.266Z,99007.09
2023-04-04T08:13:50.425Z,99006.41
2023-04-04T08:18:55.374Z,99009.59
2023-04-04T08:23:58.872Z,99005.84
2023-04-04T08:29:02.832Z,99017.09
2023-04-04T08:34:08.486Z,98941.53
2023-04-04T08:39:12.496Z,99013.84
2023-04-04T08:44:20.749Z,99007.84
2023-04-04T08:49:28.009Z,99003.06
2023-04-04T08:54:33.228Z,98989.41
2023-04-04T08:59:37.207Z,99007.91
2023-04-04T09:04:51.345Z,99005.41
2023-04-04T09:10:04.654Z,99017.19
2023-04-04T09:15:10.093Z,99021.97
2023-04-04T09:20:41.202Z,99011.13
2023-04-04T09:26:02.564Z,99021.13
2023-04-04T09:31:12.958Z,99024.16
2023-04-04T09:36:18.546Z,99030.66
2023-04-04T09:41:22.360Z,99027.78
2023-04-04T09:46:27.340Z,99029.72
2023-04-04T09:51:37.505Z,99035.44
2023-04-04T09:56:43.355Z,99033.78
2023-04-04T10:01:47.404Z,99024.22
2023-04-04T10:06:55.959Z,99031.47
2023-04-04T10:12:10.854Z,99034.91
2023-04-04T10:17:14.931Z,99026.47
2023-04-04T10:22:22.314Z,99027.59
2023-04-04T10:27:30.639Z,99036.50
2023-04-04T10:32:44.834Z,99006.75
2023-04-04T10:37:55.783Z,99038.41
2023-04-04T10:43:04.129Z,99039.09
2023-04-04T10:48:10.603Z,99041.56
2023-04-04T10:53:33.610Z,99027.13
2023-04-04T10:58:41.840Z,99051.44
2023-04-04T11:04:21.190Z,99042.03
2023-04-04T11:09:54.221Z,99034.53
2023-04-04T11:14:59.710Z,99030.66
2023-04-04T11:20:04.231Z,99038.34
2023-04-04T11:25:25.320Z,99042.16
2023-04-04T11:30:30.242Z,99037.84
2023-04-04T11:35:33.888Z,99034.75
2023-04-04T11:40:42.225Z,99036.25
2023-04-04T11:45:48.006Z,99035.25
2023-04-04T11:50:51.528Z,99031.22
2023-04-04T11:55:56.722Z,99037.00
2023-04-04T12:01:02.574Z,99033.75
2023-04-04T12:06:06.440Z,99034.19
2023-04-04T12:11:11.219Z,99018.13
2023-04-04T12:16:16.078Z,99029.97
2023-04-04T12:21:19.535Z,99039.59
2023-04-04T12:26:23.628Z,99043.09
2023-04-04T12:31:29.253Z,99042.47
2023-04-04T12:36:34.234Z,99049.88
2023-04-04T12:41:37.861Z,99055.06
2023-04-04T12:46:45.310Z,99047.09
2023-04-04T12:51:50.402Z,99055.22
2023-04-04T12:56:57.089Z,99052.00
2023-04-04T13:02:03.408Z,99058.72
2023-04-04T13:07:06.972Z,99067.97
2023-04-04T13:12:12.305Z,99076.28
2023-04-04T13:17:17.279Z,99075.91
2023-04-04T13:22:20.980Z,99078.00
2023-04-04T13:27:28.624Z,99095.19
2023-04-04T13:32:33.501Z,99089.91
2023-04-04T13:37:37.532Z,99091.69
2023-04-04T13:42:40.993Z,99094.19
2023-04-04T13:47:50.330Z,99099.56
2023-04-04T13:52:54.813Z,99099.06
2023-04-04T13:57:58.170Z,99104.69
2023-04-04T14:03:04.049Z,99103.56
2023-04-04T14:08:08.296Z,99111.16
2023-04-04T14:13:11.985Z,99106.28
2023-04-04T14:18:17.001Z,99109.31
2023-04-04T14:23:21.444Z,99105.66
2023-04-04T14:28:25.013Z,99107.50
2023-04-04T14:33:30.005Z,99103.50
2023-04-04T14:38:36.462Z,99112.66
2023-04-04T14:43:39.869Z,99115.34
2023-04-04T14:48:45.021Z,99110.72
2023-04-04T14:53:52.506Z,99116.56
2023-04-04T14:58:57.077Z,99127.94
2023-04-04T15:04:02.064Z,99130.31
2023-04-04T15:09:06.831Z,99131.81
2023-04-04T15:14:09.980Z,99141.81
2023-04-04T15:19:14.853Z,99140.59
2023-04-04T15:24:18.278Z,99140.22
2023-04-04T15:29:21.888Z,99134.59
2023-04-04T15:34:26.981Z,99143.72
2023-04-04T15:39:31.691Z,99148.59
2023-04-04T15:44:38.293Z,99149.22
2023-04-04T15:49:43.109Z,99154.81
2023-04-04T15:54:46.614Z,99147.28
2023-04-04T15:59:50.963Z,99165.78
2023-04-04T16:04:57.840Z,99167.66
2023-04-04T16:10:01.429Z,99173.88
2023-04-04T16:15:07.924Z,99178.34
2023-04-04T16:20:13.726Z,99175.03
2023-04-04T16:25:17.435Z,99194.25
2023-04-04T16:30:21.074Z,99193.41
2023-04-04T16:35:46.300Z,99148.84
2023-04-04T16:40:49.998Z,99212.81
2023-04-04T16:45:53.549Z,99209.34
2023-04-04T16:50:58.408Z,99210.19
2023-04-04T16:56:01.936Z,99189.59
2023-04-04T17:01:06.245Z,99225.94
2023-04-04T17:06:11.621Z,99212.19
2023-04-04T17:11:15.680Z,99226.94
2023-04-04T17:16:19.167Z,99220.91
2023-04-04T17:21:24.153Z,99223.50
2023-04-04T17:26:28.178Z,99217.50
2023-04-04T17:31:32.064Z,99223.56
2023-04-04T17:36:37.010Z,99230.59
2023-04-04T17:41:40.611Z,99227.22
2023-04-04T17:46:45.190Z,99223.84
2023-04-04T17:51:50.573Z,99219.66
2023-04-04T17:56:54.935Z,99213.69
2023-04-04T18:01:58.569Z,99228.38
2023-04-04T18:07:03.602Z,99233.53
2023-04-04T18:12:07.279Z,99232.69
2023-04-04T18:17:10.989Z,99233.63
2023-04-04T18:22:15.995Z,99233.69
2023-04-04T18:27:19.478Z,99232.06
2023-04-04T18:32:25.838Z,99229.56
2023-04-04T18:37:31.078Z,99229.59
2023-04-04T18:42:35.182Z,99228.84
2023-04-04T18:47:39.740Z,99228.00
2023-04-04T18:52:45.261Z,99222.00
2023-04-04T18:57:49.236Z,99230.69
2023-04-04T19:02:53.223Z,99237.63
2023-04-04T19:08:00.749Z,99240.22
2023-04-04T19:13:04.289Z,99249.75
2023-04-04T19:18:07.910Z,99256.63
2023-04-04T19:23:13.214Z,99259.22
2023-04-04T19:28:16.661Z,99257.47
2023-04-04T19:33:23.026Z,99242.75
2023-04-04T19:38:29.887Z,99252.22
2023-04-04T19:43:33.494Z,99252.16
2023-04-04T19:48:43.826Z,99261.69
2023-04-04T19:53:50.508Z,99268.53
2023-04-04T19:58:55.355Z,99262.47
2023-04-04T20:04:06.572Z,99264.13
2023-04-04T20:09:14.507Z,99269.28
2023-04-04T20:14:22.410Z,99266.59
2023-04-04T20:19:29.003Z,99275.16
2023-04-04T20:24:34.051Z,99270.81
2023-04-04T20:29:37.897Z,99275.94
2023-04-04T20:34:42.943Z,99270.66
2023-04-04T20:39:54.797Z,99282.75
2023-04-04T20:45:00.785Z,99275.81
2023-04-04T20:50:34.790Z,99274.06
2023-04-04T20:55:41.797Z,99279.16
2023-04-04T21:00:46.811Z,99284.25
2023-04-04T21:05:51.200Z,99273.00
2023-04-04T21:10:57.329Z,99273.03
2023-04-04T21:16:03.250Z,99268.69
2023-04-04T21:21:18.951Z,99283.31
2023-04-04T21:26:30.311Z,99282.44
2023-04-04T21:31:39.204Z,99286.72
2023-04-04T21:36:43.260Z,99278.06
2023-04-04T21:41:51.620Z,99288.47
2023-04-04T21:46:55.988Z,99297.94
2023-04-04T21:51:59.435Z,99297.94
2023-04-04T21:57:04.332Z,99302.25
2023-04-04T22:02:07.584Z,99308.31
2023-04-04T22:07:11.199Z,99308.25
2023-04-04T22:12:16.056Z,99310.81
2023-04-04T22:17:23.701Z,99314.25
2023-04-04T22:22:29.869Z,99308.06
2023-04-04T22:27:36.048Z,99324.47
2023-04-04T22:32:43.955Z,99320.88
2023-04-04T22:37:47.463Z,99330.28
2023-04-04T22:42:52.407Z,99324.25
2023-04-04T22:47:58.112Z,99333.69
2023-04-04T22:53:01.554Z,99344.00
2023-04-04T22:58:06.453Z,99339.66
2023-04-04T23:03:09.588Z,99342.22
2023-04-04T23:08:13.005Z,99342.03
2023-04-04T23:13:17.905Z,99353.19
2023-04-04T23:18:22.169Z,99350.44
2023-04-04T23:23:25.920Z,99351.28
2023-04-04T23:28:31.049Z,99352.13
2023-04-04T23:33:34.545Z,99350.31
2023-04-04T23:38:37.985Z,99350.25
2023-04-04T23:43:43.620Z,99343.34
2023-04-04T23:48:47.250Z,99354.50
2023-04-04T23:53:50.881Z,99347.53
2023-04-04T23:58:55.774Z,99345.72
